St. LLORENÇ del MUNT i l'OBAC -La Mata (Bages)





Hora UTC 21:55
Temperatura 22.4 ºC
Humedad 60.3 %
Presión 1019.8 hPa
Pluja 0.0 mm
Velocidad viento 15.8 km/h
Dirección viento ESE
Radiación solar 0.1 W/m²
Fuel 17.5 %

Datos diarios 2024-07-24



Hora UTC (invierno +1h; verano +2h)
Temperatura (ºC) Humedad (%) Presión (hPa) Velocidad viento (km/h) Precipitación (mm) Fuel (%) Radiación solar (W/m²)
Hora UTC Aire Humedad Presión Vel. Dir. Vel. Max Dir. Intent. máx 5 min. Fuel Rad. Sol.
00:05 21.9 76.2 1023.4 14.9 SE 14.9 ESE 0.0 30.9 0.1
00:10 21.9 76.1 1023.4 16.0 SE 30.7 ESE 0.0 31.0 0.1
00:15 21.9 76.4 1023.3 16.2 SE 26.1 SE 0.0 31.3 0.1
00:20 21.9 76.7 1023.3 16.7 SE 24.0 ESE 0.0 31.5 0.1
00:25 22.0 77.0 1023.2 16.0 SE 25.8 ESE 0.0 31.8 0.1
00:30 21.9 77.4 1023.2 15.4 SE 26.8 ESE 0.0 32.0 0.1
00:35 21.8 77.8 1023.2 15.4 SE 22.9 SE 0.0 32.2 0.1
00:40 21.8 78.3 1023.2 15.6 SE 25.4 SE 0.0 32.6 0.1
00:45 21.8 78.2 1023.1 15.7 SE 24.3 SE 0.0 32.8 0.1
00:50 21.7 78.6 1023.1 17.2 SE 24.3 SSE 0.0 33.1 0.1
00:55 21.8 78.0 1023.2 15.9 SE 24.7 SE 0.0 33.4 0.1
01:00 21.8 77.7 1023.2 14.6 SE 21.5 SSE 0.0 33.6 0.1
01:05 21.8 77.6 1023.3 11.3 SE 17.6 SE 0.0 33.8 0.1
01:10 21.7 78.0 1023.3 8.2 SE 13.8 SSE 0.0 33.9 0.1
01:15 21.6 77.9 1023.3 7.0 SE 14.5 ESE 0.0 34.1 0.1
01:20 21.4 77.3 1023.3 7.8 SE 12.7 SE 0.0 34.3 0.1
01:25 21.3 75.7 1023.3 8.4 SSE 13.8 SE 0.0 34.3 0.1
01:30 21.4 75.6 1023.2 6.3 S 10.2 S 0.0 34.5 0.1
01:35 21.3 74.4 1023.2 7.3 S 9.9 S 0.0 34.6 0.1
01:40 21.3 74.7 1023.1 7.8 S 10.2 S 0.0 34.7 0.1
01:45 21.3 75.3 1023.1 8.8 S 13.8 SSW 0.0 34.9 0.1
01:50 21.5 75.1 1023.1 7.5 S 11.6 S 0.0 35.1 0.2
01:55 21.4 76.1 1023.0 6.6 S 8.8 S 0.0 35.3 0.1
02:00 21.2 77.4 1023.0 6.4 S 8.5 SSE 0.0 35.4 0.1
02:05 21.0 77.8 1022.9 7.4 S 9.5 S 0.0 35.7 0.1
02:10 20.9 78.1 1022.9 7.6 S 9.9 S 0.0 36.0 0.1
02:15 20.7 77.3 1022.8 8.9 SSE 10.9 SSE 0.0 36.0 0.1
02:20 20.5 73.7 1022.8 9.6 SE 12.0 SE 0.0 35.8 0.1
02:25 20.4 69.3 1022.7 10.1 SE 16.9 SE 0.0 35.4 0.1
02:30 20.7 67.2 1022.6 9.8 SE 14.8 SE 0.0 35.3 0.1
02:35 20.8 66.1 1022.6 11.5 SSE 15.5 SE 0.0 35.1 0.1
02:40 20.9 68.5 1022.5 11.8 S 18.4 S 0.0 35.3 0.1
02:45 21.0 69.7 1022.5 12.2 S 15.9 SSE 0.0 35.5 0.1
02:50 21.0 70.0 1022.5 11.9 S 16.6 S 0.0 35.5 0.1
02:55 20.9 70.9 1022.5 12.8 S 16.2 S 0.0 35.6 0.1
03:00 20.9 70.6 1022.5 12.2 S 16.2 S 0.0 35.6 0.1
03:05 20.8 70.9 1022.5 11.7 S 15.2 S 0.0 35.5 0.1
03:10 20.7 70.7 1022.5 11.1 S 15.5 S 0.0 35.5 0.1
03:15 20.7 70.7 1022.5 10.1 S 14.5 SSE 0.0 35.5 0.1
03:20 20.6 71.0 1022.5 10.9 S 14.1 SSW 0.0 35.5 0.1
03:25 20.6 70.9 1022.4 10.5 S 13.1 S 0.0 35.5 0.1
03:30 20.6 71.0 1022.4 10.2 S 13.4 S 0.0 35.6 0.1
03:35 20.5 71.1 1022.4 10.3 S 13.1 S 0.0 35.6 0.1
03:40 20.5 70.2 1022.4 11.0 S 14.8 S 0.0 35.6 0.1
03:45 20.6 69.4 1022.3 11.2 S 14.8 S 0.0 35.6 0.1
03:50 20.7 68.5 1022.3 11.7 S 16.6 S 0.0 35.6 0.1
03:55 20.8 68.2 1022.4 11.8 S 16.9 S 0.0 35.6 0.1
04:00 20.9 68.4 1022.4 11.6 S 14.8 S 0.0 35.6 0.1
04:05 20.8 69.0 1022.4 11.2 S 15.9 S 0.0 35.6 0.1
04:10 20.7 69.3 1022.4 11.5 S 17.6 S 0.0 35.8 0.1
04:15 20.6 69.5 1022.4 10.8 S 14.8 S 0.0 36.0 0.1
04:20 20.6 69.7 1022.4 10.8 S 15.5 S 0.0 36.0 0.2
04:25 20.5 69.8 1022.4 11.0 S 15.2 S 0.0 36.3 0.5
04:30 20.5 69.7 1022.4 11.3 S 14.8 S 0.0 36.5 1.1
04:35 20.5 69.7 1022.4 12.0 S 15.9 S 0.0 36.6 1.9
04:40 20.4 70.1 1022.4 13.8 S 18.4 SSW 0.0 36.7 3.5
04:45 20.4 70.3 1022.4 11.1 S 16.2 SSE 0.0 36.8 5.7
04:50 20.4 70.4 1022.4 11.1 S 16.2 S 0.0 36.8 8.4
04:55 20.3 70.8 1022.4 10.7 S 16.2 SSE 0.0 36.8 13.8
05:00 20.3 70.7 1022.4 11.3 S 16.9 SSE 0.0 36.9 30.3
05:05 20.3 70.8 1022.4 10.7 S 15.2 SE 0.0 37.0 40.6
05:10 20.3 71.0 1022.4 10.4 S 15.2 SSE 0.0 37.0 52.2
05:15 20.4 71.0 1022.3 11.2 S 16.2 SSE 0.0 37.1 64.1
05:20 20.5 70.9 1022.3 10.5 S 15.5 SSE 0.0 37.2 74.8
05:25 20.6 70.6 1022.3 10.0 SSE 13.8 SSE 0.0 37.3 85.1
05:30 20.7 70.3 1022.3 10.2 SSE 14.1 S 0.0 37.3 97.1
05:35 20.9 70.2 1022.4 10.2 S 13.8 S 0.0 37.4 109.7
05:40 21.0 70.3 1022.4 9.1 S 12.7 S 0.0 37.5 122.2
05:45 21.0 70.4 1022.5 9.2 S 14.1 SSE 0.0 37.7 135.4
05:50 21.2 70.4 1022.5 9.1 S 14.5 S 0.0 38.0 148.8
05:55 21.4 70.1 1022.5 7.7 S 10.9 SSE 0.0 38.5 163.1
06:00 21.7 69.5 1022.5 6.8 S 10.9 S 0.0 38.6 178.0
06:05 22.0 68.6 1022.5 7.4 S 9.9 S 0.0 38.5 192.5
06:10 22.2 67.8 1022.6 6.9 SSE 10.2 S 0.0 38.2 207.6
06:15 22.5 66.9 1022.6 6.2 S 9.5 SSE 0.0 38.0 222.9
06:20 22.8 63.4 1022.6 7.1 SSE 10.9 SSE 0.0 37.1 238.7
06:25 23.2 58.7 1022.6 7.3 SSE 10.9 SSE 0.0 36.4 253.6
06:30 23.4 55.0 1022.6 7.2 SSE 10.2 SSE 0.0 35.5 268.5
06:35 23.3 52.5 1022.7 6.8 S 11.3 SSE 0.0 34.5 283.9
06:40 23.3 50.5 1022.7 7.7 S 11.6 S 0.0 33.7 299.9
06:45 23.5 48.3 1022.6 8.2 S 13.1 SSW 0.0 32.9 315.8
06:50 23.7 47.3 1022.6 7.0 S 11.6 SE 0.0 32.4 331.3
06:55 24.0 46.2 1022.7 6.2 SSE 10.2 SSE 0.0 31.8 346.5
07:00 24.3 44.4 1022.7 6.9 SSE 11.3 SE 0.0 31.2 361.6
07:05 24.6 42.8 1022.7 7.2 S 11.3 S 0.0 30.4 376.8
07:10 24.7 42.0 1022.8 7.7 SSE 11.3 S 0.0 29.6 391.5
07:15 24.6 41.7 1022.8 7.9 S 11.6 SSE 0.0 28.7 406.5
07:20 24.9 41.4 1022.8 7.1 SSE 10.9 S 0.0 28.1 422.1
07:25 25.2 41.4 1022.8 7.6 S 12.7 SSW 0.0 27.5 436.8
07:30 25.1 41.5 1022.8 9.9 S 16.6 SSW 0.0 26.6 451.4
07:35 24.9 42.1 1022.8 10.6 S 19.8 S 0.0 26.2 466.2
07:40 25.0 42.1 1022.7 12.2 S 20.1 SSE 0.0 25.7 480.4
07:45 25.2 42.7 1022.7 10.7 S 19.4 S 0.0 25.4 494.6
07:50 25.2 42.6 1022.7 11.9 S 20.5 SSW 0.0 24.6 508.7
07:55 25.4 43.3 1022.7 11.4 SSE 18.0 S 0.0 24.3 522.5
08:00 25.6 43.2 1022.7 10.9 S 18.4 S 0.0 23.3 536.6
08:05 25.4 44.0 1022.7 10.8 S 23.6 SSW 0.0 22.5 550.0
08:10 25.6 43.7 1022.8 13.6 S 22.9 SSE 0.0 22.3 563.8
08:15 25.5 44.4 1022.7 15.1 S 24.3 SSW 0.0 21.7 577.4
08:20 25.8 44.4 1022.7 14.9 S 22.9 SSW 0.0 21.6 590.8
08:25 26.0 44.3 1022.6 13.8 S 24.0 SSW 0.0 21.4 603.8
08:30 25.8 44.2 1022.6 13.6 S 26.5 SSW 0.0 20.7 617.9
08:35 25.8 45.2 1022.5 13.8 S 23.3 SSW 0.0 20.5 630.3
08:40 26.1 44.7 1022.5 14.3 S 21.9 S 0.0 20.3 643.7
08:45 26.1 44.2 1022.5 14.9 S 25.8 SSW 0.0 19.9 656.8
08:50 25.9 44.3 1022.5 15.4 S 27.5 SSW 0.0 19.3 669.3
08:55 26.1 43.1 1022.5 15.0 S 26.8 S 0.0 19.1 682.4
09:00 26.2 42.7 1022.5 14.2 S 21.9 SSW 0.0 18.8 695.0
09:05 26.5 42.5 1022.5 12.6 S 21.5 S 0.0 18.7 706.8
09:10 26.8 41.6 1022.5 15.2 S 25.4 SW 0.0 18.5 717.9
09:15 1020.6 18.7 29.3 SSW 0.0 728.8
09:20 26.4 42.4 1022.4 15.4 S 26.1 S 0.0 17.4 739.6
09:25 26.3 41.3 1022.4 14.4 S 25.1 SSW 0.0 17.0 750.6
09:30 26.5 41.3 1022.4 15.8 S 24.7 S 0.0 16.9 760.4
09:35 26.9 39.3 1022.3 16.2 S 26.1 S 0.0 16.6 769.6
09:40 26.7 38.7 1022.3 18.2 S 33.9 S 0.0 16.0 778.7
09:45 27.0 38.6 1022.3 15.1 S 22.9 SSW 0.0 16.0 789.6
09:50 26.9 38.1 1022.3 15.6 S 25.8 S 0.0 15.4 798.4
09:55 27.1 38.1 1022.2 12.3 S 25.1 S 0.0 15.3 807.0
10:00 27.6 37.3 1022.2 16.7 SSE 27.9 SE 0.0 15.3 815.0
10:05 27.7 37.3 1022.2 15.3 S 28.6 SSW 0.0 15.1 823.0
10:10 27.3 38.3 1022.2 20.2 SSW 31.4 SSW 0.0 14.0 831.0
10:15 26.9 39.4 1022.2 12.5 SSW 27.5 SSW 0.0 13.8 837.0
10:20 27.3 39.7 1022.2 13.1 S 27.2 SSW 0.0 13.9 844.0
10:25 27.6 39.8 1022.2 12.9 S 23.3 SSE 0.0 13.9 851.0
10:30 27.6 40.5 1022.2 13.1 SSW 23.6 SW 0.0 13.5 857.0
10:35 27.2 42.1 1022.2 14.8 SSW 25.4 SW 0.0 12.9 863.0
10:40 27.3 42.3 1022.2 15.1 SW 29.3 SSW 0.0 12.7 869.0
10:45 27.3 43.1 1022.2 11.5 SSW 21.9 SSE 0.0 12.9 872.0
10:50 27.6 42.6 1022.1 10.8 SW 25.1 WSW 0.0 12.9 879.0
10:55 27.8 42.8 1022.1 11.2 SW 22.2 WSW 0.0 12.7 885.0
11:00 28.4 41.7 1022.0 12.8 S 26.8 SSE 0.0 13.0 888.0
11:05 28.0 41.9 1022.0 11.8 WSW 20.5 SW 0.0 12.3 889.0
11:10 28.3 41.7 1022.0 13.0 SSW 21.2 SSW 0.0 12.2 895.0
11:15 28.2 42.1 1021.9 8.9 SW 16.9 SW 0.0 12.0 896.0
11:20 28.9 41.4 1021.9 13.6 SSW 29.3 SSW 0.0 12.1 895.0
11:25 28.3 41.4 1021.9 15.3 SSW 30.0 SW 0.0 11.2 900.0
11:30 28.1 42.6 1021.8 14.4 S 28.9 SSW 0.0 11.4 906.0
11:35 28.4 41.9 1021.8 14.6 SW 26.1 WSW 0.0 11.2 909.0
11:40 28.0 42.3 1021.8 13.3 WSW 25.4 SW 0.0 10.8 904.0
11:45 28.0 42.2 1021.7 11.2 W 23.6 SW 0.0 10.7 909.0
11:50 28.1 42.0 1021.7 14.6 SW 26.1 SW 0.0 10.7 913.0
11:55 28.5 41.9 1021.6 15.1 SW 27.2 SW 0.0 10.6 912.0
12:00 28.4 42.3 1021.6 9.9 SW 24.3 SSW 0.0 10.5 912.0
12:05 29.3 41.2 1021.5 9.9 SSW 19.4 W 0.0 10.8 912.0
12:10 29.7 42.1 1021.4 9.3 S 18.4 SSW 0.0 11.1 904.0
12:15 29.9 42.1 1021.3 15.5 S 30.0 SE 0.0 10.7 904.0
12:20 29.6 42.6 1021.3 18.4 S 32.8 S 0.0 10.0 902.0
12:25 29.3 43.6 1021.2 17.6 SSE 31.1 SSW 0.0 10.0 901.0
12:30 29.4 43.5 1021.2 18.9 SSE 32.5 ESE 0.0 10.1 897.0
12:35 29.5 43.6 1021.2 13.0 SSE 26.5 SSE 0.0 10.1 825.0
12:40 29.5 43.5 1021.1 14.6 SSE 32.1 SSE 0.0 10.0 885.0
12:45 29.1 45.5 1021.1 19.4 S 36.7 S 0.0 9.5 881.0
12:50 29.0 46.6 1021.0 17.6 SSE 30.3 SSE 0.0 9.6 876.0
12:55 28.8 48.5 1021.0 19.0 SSE 33.5 SSE 0.0 9.5 870.0
13:00 29.1 48.4 1020.9 16.0 SSE 31.8 S 0.0 9.7 869.0
13:05 29.0 48.7 1020.9 17.8 S 32.8 SE 0.0 9.4 861.0
13:10 28.8 50.4 1020.8 17.7 SSE 35.3 SSE 0.0 9.3 858.0
13:15 28.6 51.6 1020.8 22.3 SSE 38.1 SSE 0.0 9.2 854.0
13:20 28.6 50.6 1020.7 19.9 SE 35.6 SE 0.0 9.4 845.0
13:25 28.5 52.2 1020.7 21.1 SSE 39.9 SSE 0.0 9.4 837.0
13:30 28.6 49.0 1020.7 21.1 S 37.8 SSE 0.0 9.2 833.0
13:35 28.5 48.3 1020.7 20.1 SSE 37.0 SSW 0.0 8.9 826.0
13:40 28.4 48.6 1020.6 20.2 S 34.6 S 0.0 8.7 819.0
13:45 28.3 48.6 1020.6 23.0 SSE 37.4 SSE 0.0 8.7 810.0
13:50 28.4 48.4 1020.6 23.7 SSE 41.3 SSE 0.0 8.9 801.0
13:55 28.4 46.1 1020.6 21.3 SSE 34.2 SSE 0.0 8.7 795.0
14:00 28.4 45.5 1020.5 23.5 SSE 36.0 S 0.0 8.6 787.3
14:05 28.2 45.2 1020.5 21.6 SSE 36.7 SE 0.0 8.3 778.7
14:10 28.4 44.4 1020.4 21.2 SSE 35.6 SSE 0.0 8.5 770.0
14:15 28.1 44.6 1020.4 25.4 SSE 42.0 SSE 0.0 8.1 759.5
14:20 27.9 44.9 1020.3 22.3 SSE 37.8 S 0.0 8.0 749.6
14:25 28.1 44.6 1020.3 21.6 S 37.4 S 0.0 8.1 739.1
14:30 28.0 44.6 1020.3 19.5 S 33.9 SSW 0.0 8.2 728.8
14:35 28.2 44.1 1020.2 23.8 SSW 40.2 SSW 0.0 7.8 719.4
14:40 28.2 44.1 1020.2 20.1 S 33.9 S 0.0 8.0 709.1
14:45 28.2 44.2 1020.1 23.8 SSW 36.7 S 0.0 8.0 699.0
14:50 27.7 44.6 1020.1 26.6 SSW 44.1 SSW 0.0 7.6 688.2
14:55 27.7 45.3 1020.1 22.6 SSW 39.9 SSW 0.0 7.8 676.4
15:00 27.4 45.8 1020.1 25.5 SSW 37.8 SSW 0.0 7.7 664.1
15:05 27.3 45.6 1020.0 23.9 SSW 35.6 SW 0.0 7.7 652.2
15:10 27.4 45.4 1020.0 24.7 SSW 35.6 SSW 0.0 7.9 640.6
15:15 27.4 45.3 1019.9 25.0 SSW 36.3 S 0.0 7.9 627.1
15:20 27.2 44.9 1019.9 26.0 SSW 36.3 SW 0.0 7.9 614.8
15:25 27.2 44.8 1019.8 22.1 SSW 33.9 SSW 0.0 7.9 602.2
15:30 27.3 44.5 1019.8 22.5 S 34.6 SW 0.0 7.9 590.2
15:35 27.2 45.4 1019.8 23.8 SSW 34.9 SSW 0.0 7.9 575.4
15:40 27.1 46.3 1019.7 23.9 SSW 34.6 SSW 0.0 7.9 561.9
15:45 27.0 46.0 1019.7 23.8 SSW 36.3 SSW 0.0 7.9 548.4
15:50 26.9 46.4 1019.7 24.4 SSW 34.6 SSW 0.0 7.9 535.1
15:55 26.8 46.8 1019.6 20.9 S 36.7 SSW 0.0 8.0 521.8
16:00 27.0 46.5 1019.6 20.3 S 32.8 S 0.0 8.2 508.2
16:05 26.8 46.5 1019.5 21.0 SSE 38.8 SSE 0.0 8.3 494.2
16:10 26.5 48.2 1019.5 22.6 SSE 39.2 SSE 0.0 8.3 479.7
16:15 26.3 48.3 1019.5 21.6 S 36.7 S 0.0 8.2 466.2
16:20 26.1 47.9 1019.4 20.9 S 35.6 SSW 0.0 8.1 451.6
16:25 26.1 48.5 1019.4 20.1 SSE 32.1 SSE 0.0 8.4 436.8
16:30 26.1 48.2 1019.3 21.6 S 36.3 SSE 0.0 8.4 422.5
16:35 26.3 47.7 1019.3 20.4 S 36.0 SSW 0.0 8.2 407.1
16:40 26.1 47.1 1019.3 20.3 S 34.2 S 0.0 8.2 393.7
16:45 25.9 46.6 1019.3 17.7 S 38.5 SSW 0.0 8.3 378.0
16:50 25.7 46.1 1019.3 20.5 S 32.8 SSE 0.0 8.1 362.2
16:55 25.7 45.9 1019.2 20.7 SSE 30.7 SSE 0.0 8.2 308.3
17:00 25.6 45.9 1019.3 19.4 S 31.4 SE 0.0 8.2 255.9
17:05 25.4 45.7 1019.3 18.7 S 32.8 S 0.0 8.1 320.6
17:10 25.6 44.8 1019.3 17.7 SSE 28.2 SSE 0.0 8.1 304.8
17:15 25.3 44.5 1019.3 20.1 S 34.6 SSE 0.0 8.0 289.5
17:20 25.1 44.7 1019.3 20.6 SSE 33.2 SSE 0.0 7.9 274.5
17:25 25.0 45.9 1019.3 20.2 SSE 34.2 SSE 0.0 7.9 259.5
17:30 25.0 45.1 1019.4 18.1 SSE 32.1 SSW 0.0 8.0 245.8
17:35 24.8 44.7 1019.4 19.9 S 34.2 SSE 0.0 7.8 230.9
17:40 24.8 45.1 1019.4 16.6 SSE 28.9 SSE 0.0 7.8 215.6
17:45 24.7 46.5 1019.4 18.1 S 29.6 SSE 0.0 7.8 201.0
17:50 24.4 49.5 1019.4 19.4 S 29.6 S 0.0 7.7 186.8
17:55 24.2 51.1 1019.4 19.2 SSE 30.7 SSE 0.0 7.8 173.3
18:00 24.0 52.9 1019.4 16.0 S 26.8 SSE 0.0 7.9 159.9
18:05 23.9 54.0 1019.5 15.0 S 26.5 SSE 0.0 8.1 146.5
18:10 23.7 55.0 1019.5 16.0 SSE 23.6 SSE 0.0 8.1 133.0
18:15 23.6 55.3 1019.6 14.8 S 23.3 S 0.0 8.0 119.9
18:20 23.5 54.7 1019.5 15.1 S 27.9 SE 0.0 8.0 105.9
18:25 23.4 54.4 1019.5 16.6 S 22.9 S 0.0 8.3 94.0
18:30 23.3 55.2 1019.6 15.6 SSE 26.5 S 0.0 8.4 81.0
18:35 23.1 56.5 1019.7 16.0 S 26.1 SSE 0.0 8.6 69.0
18:40 23.0 56.9 1019.7 14.1 S 21.5 SSW 0.0 8.6 59.8
18:45 22.8 57.5 1019.7 15.3 S 22.9 SSE 0.0 8.6 34.7
18:50 22.6 58.1 1019.7 13.6 S 20.8 SSE 0.0 8.8 30.5
18:55 22.5 58.6 1019.7 13.3 S 19.4 S 0.0 9.1 25.6
19:00 22.4 59.2 1019.7 12.2 S 18.7 SSE 0.0 9.2 18.5
19:05 22.3 60.2 1019.8 14.3 S 21.5 SSE 0.0 9.4 13.1
19:10 22.2 60.6 1019.8 12.3 S 17.3 S 0.0 9.6 9.7
19:15 22.0 61.0 1019.8 12.9 S 19.8 SSE 0.0 9.9 6.7
19:20 21.9 61.4 1019.7 12.3 S 22.9 SSW 0.0 10.1 4.5
19:25 21.8 61.7 1019.8 11.3 S 20.8 S 0.0 10.3 3.0
19:30 21.7 62.3 1019.7 11.6 SSE 18.0 SSE 0.0 10.5 1.8
19:35 21.6 63.0 1019.7 13.1 SSE 20.5 SSE 0.0 10.8 1.0
19:40 21.5 63.5 1019.7 11.9 SSE 17.6 S 0.0 11.1 0.5
19:45 21.4 64.3 1019.7 12.2 SSE 17.3 SSE 0.0 11.4 0.3
19:50 21.3 65.2 1019.8 10.5 SSE 16.6 SSE 0.0 11.6 0.1
19:55 21.3 65.8 1019.8 10.6 S 16.6 S 0.0 12.0 0.1
20:00 21.2 66.3 1019.8 10.3 S 16.6 S 0.0 12.3 0.1
20:05 21.1 66.7 1019.9 10.8 SSE 15.2 S 0.0 12.5 0.1
20:10 21.0 67.2 1019.9 10.1 SSE 15.2 SSE 0.0 12.7 0.1
20:15 21.0 67.6 1019.9 10.1 S 15.2 S 0.0 13.1 0.1
20:20 20.9 67.8 1019.9 10.6 S 14.1 S 0.0 13.4 0.1
20:25 20.9 68.5 1019.9 11.1 S 14.5 SSE 0.0 13.7 0.1
20:30 20.8 69.1 1020.0 9.6 S 13.4 SSE 0.0 14.0 0.1
20:35 20.7 69.5 1020.0 10.7 S 14.5 S 0.0 14.3 0.1
20:40 20.6 69.8 1020.0 9.7 S 13.1 S 0.0 14.6 0.1
20:45 20.6 69.8 1019.9 9.6 S 12.7 SSE 0.0 14.9 0.1
20:50 20.5 69.8 1019.9 9.2 S 13.1 SE 0.0 15.1 0.1
20:55 20.5 69.9 1019.9 7.8 S 12.4 S 0.0 15.4 0.1
21:00 20.4 70.1 1019.9 8.1 S 13.8 S 0.0 15.6 0.1
21:05 20.3 70.6 1019.9 8.8 SSE 12.0 SSE 0.0 15.8 0.1
21:10 20.2 70.3 1019.9 9.6 SSE 14.1 SE 0.0 16.0 0.1
21:15 20.2 70.4 1019.9 10.0 SSE 13.1 S 0.0 16.2 0.1
21:20 20.0 70.1 1019.8 10.3 SE 18.0 ESE 0.0 16.4 0.1
21:25 20.2 65.7 1019.8 13.3 ESE 20.8 E 0.0 16.6 0.1
21:30 21.1 60.5 1019.8 15.2 ESE 21.2 ESE 0.0 16.8 0.1
21:35 21.7 59.8 1019.8 16.9 ESE 27.5 ESE 0.0 17.0 0.1
21:40 22.1 60.1 1019.8 16.7 ESE 26.1 ESE 0.0 17.2 0.1
21:45 22.3 58.8 1019.8 17.0 ESE 24.7 ESE 0.0 17.3 0.1
21:50 22.3 59.6 1019.8 16.3 ESE 23.6 ESE 0.0 17.3 0.1
21:55 22.4 60.3 1019.8 15.8 ESE 24.3 E 0.0 17.5 0.1
Máxima 30.1 78.6 1023.4 26.6 SSW 44.1 SSW 0.0 38.6 913.0
Mínima 19.9 37.3 1019.2 7.6
Total 0.0